Sharon Center, Ohio
Current Conditions -  °F | °C
As of 2:54 AM on Sunday 26 Oct 2014 (Local Time) from KAKR Reporting Station
Clear Clear  
Wind Chill: 45°   Ceiling: Unl
Heat Index: 49°   Visibility: 10mi
Dew Point: 33°   Wind: 8mph
Humidity: 54%   Direction: 280°W
Pressure: 29.82"   Gusts: NA
Location:  41.1°N, 81.74°W
Report Text: KAKR 260654Z AUTO 28007KT 10SM CLR 09/01 A2982 RMK AO2 SLP094 T00940006
Loading
Personal Weather Stations






























Interactive Weather Map
Tropical Storm Tracking
New forecast layout! Learn more

10-Day Weather Forecast

Advertisements
Track Severe Weather on mobile